Sulphur, Indiana
Current Conditions -  °F | °C
As of 9:15 AM on Sunday 21 Dec 2014 (Local Time) from KHNB Reporting Station
Clear Clear  
Wind Chill: 20°   Ceiling: Unl
Heat Index: 27°   Visibility: 5mi
Dew Point: 25°   Wind: 6mph
Humidity: 93%   Direction: 100°E
Pressure: 30.28"   Gusts: NA
Location:  38.23°N, 86.47°W
Report Text: KHNB 211415Z AUTO 10005KT 5SM CLR M03/M04 A3028 RMK AO1
Loading
Personal Weather Stations






























Interactive Weather Map New forecast layout! Learn more

10-Day Weather Forecast

Advertisements
Track Severe Weather on mobile